Time;durP1;ratioP1;P1;durP2;ratioP2;P2;SDS_P1;SDS_P2;PMS_P1;PMS_P2;Temp;Humidity;BMP_temperature;BMP_pressure;BME280_temperature;BME280_humidity;BME280_pressure;Samples;Min_cycle;Max_cycle;Signal;HPM_P1;HPM_P2
2023/10/04 00:00:20;;;;;;;14.95;9.93;;;15.30;66.10;;;;;;5069741;28;20501;-61
2023/10/04 00:02:50;;;;;;;14.93;10.18;;;15.30;66.10;;;;;;5069740;28;20025;-61
2023/10/04 00:05:17;;;;;;;15.32;11.57;;;15.30;66.10;;;;;;5069804;28;20025;-61
2023/10/04 00:07:46;;;;;;;16.63;10.80;;;15.30;66.20;;;;;;5069942;28;20028;-62
2023/10/04 00:10:13;;;;;;;15.77;11.52;;;15.30;66.00;;;;;;5069789;28;20024;-61
2023/10/04 00:12:39;;;;;;;15.35;12.05;;;15.30;66.00;;;;;;5071634;28;20050;-62
2023/10/04 00:15:15;;;;;;;15.55;10.40;;;15.20;66.00;;;;;;5073416;28;20028;-61
2023/10/04 00:17:42;;;;;;;15.52;10.02;;;15.30;65.80;;;;;;5073229;28;20027;-61
2023/10/04 00:20:13;;;;;;;17.67;10.10;;;15.30;65.70;;;;;;5073140;28;20043;-61
2023/10/04 00:22:40;;;;;;;12.55;9.10;;;15.30;65.60;;;;;;5073298;28;20025;-61
2023/10/04 00:25:20;;;;;;;13.13;9.65;;;15.20;65.50;;;;;;5073093;28;20028;-61
2023/10/04 00:27:47;;;;;;;13.55;9.00;;;15.30;65.40;;;;;;5071209;28;20025;-61
2023/10/04 00:30:17;;;;;;;12.43;8.98;;;15.20;65.50;;;;;;5070854;28;20107;-59
2023/10/04 00:32:46;;;;;;;12.97;8.87;;;15.20;65.50;;;;;;5071048;28;20024;-61
2023/10/04 00:35:17;;;;;;;12.57;8.30;;;15.20;65.60;;;;;;5071115;28;20477;-61
2023/10/04 00:37:44;;;;;;;14.10;8.52;;;15.20;65.50;;;;;;5071421;28;20062;-60
2023/10/04 00:40:18;;;;;;;11.80;8.73;;;15.20;65.50;;;;;;5071375;28;20119;-59
2023/10/04 00:42:48;;;;;;;12.95;8.40;;;15.20;65.40;;;;;;5071344;28;20028;-61
2023/10/04 00:45:14;;;;;;;13.90;8.37;;;15.20;65.40;;;;;;5072758;28;20074;-61
2023/10/04 00:47:50;;;;;;;13.57;9.07;;;15.20;65.30;;;;;;5072991;28;20036;-61
2023/10/04 00:50:22;;;;;;;11.70;8.88;;;15.20;65.30;;;;;;5072668;28;20780;-62
2023/10/04 00:52:52;;;;;;;12.45;8.27;;;15.10;65.30;;;;;;5072884;28;20032;-61
2023/10/04 00:55:19;;;;;;;13.45;9.38;;;15.10;65.30;;;;;;5072861;28;20032;-57
2023/10/04 00:57:49;;;;;;;12.40;8.70;;;15.10;65.20;;;;;;5072903;28;20029;-61
2023/10/04 01:00:17;;;;;;;14.73;9.67;;;15.10;65.20;;;;;;5072494;28;20013;-61
2023/10/04 01:02:44;;;;;;;15.20;8.85;;;15.10;65.30;;;;;;5072744;28;20025;-61
2023/10/04 01:05:11;;;;;;;12.13;8.50;;;15.00;65.20;;;;;;5072575;28;20028;-60
2023/10/04 01:07:40;;;;;;;14.90;9.02;;;15.00;65.20;;;;;;5072347;28;20052;-61
2023/10/04 01:10:16;;;;;;;14.45;8.25;;;15.00;65.40;;;;;;5072227;28;20496;-61
2023/10/04 01:12:54;;;;;;;12.73;8.00;;;15.00;65.20;;;;;;5072372;28;20061;-61
2023/10/04 01:17:54;;;;;;;11.82;7.85;;;15.00;65.10;;;;;;5072423;28;20070;-61
2023/10/04 01:20:27;;;;;;;12.73;7.88;;;14.90;65.30;;;;;;5071962;28;20099;-61
2023/10/04 01:23:05;;;;;;;11.52;7.85;;;14.90;65.20;;;;;;5071449;28;20035;-60
2023/10/04 01:25:35;;;;;;;13.75;8.27;;;14.90;65.20;;;;;;5071901;28;20028;-61
2023/10/04 01:28:12;;;;;;;11.30;7.32;;;14.90;65.10;;;;;;5072252;28;20028;-61
2023/10/04 01:30:43;;;;;;;11.05;8.35;;;14.90;65.00;;;;;;5071832;28;20028;-60
2023/10/04 01:33:16;;;;;;;13.93;7.65;;;14.90;65.00;;;;;;5071835;28;20489;-61
2023/10/04 01:35:53;;;;;;;13.52;7.50;;;14.90;65.00;;;;;;5071816;28;20051;-61
2023/10/04 01:38:27;;;;;;;12.65;7.43;;;14.90;64.80;;;;;;5072046;28;20406;-61
2023/10/04 01:40:54;;;;;;;13.70;8.45;;;14.90;64.90;;;;;;5071960;28;20024;-61
2023/10/04 01:43:21;;;;;;;11.80;7.88;;;14.90;64.90;;;;;;5070305;28;20029;-61
2023/10/04 01:45:59;;;;;;;15.10;7.57;;;14.80;64.80;;;;;;5071574;28;20024;-61
2023/10/04 01:48:27;;;;;;;13.82;7.53;;;14.80;64.80;;;;;;5071477;28;20028;-61
2023/10/04 01:50:53;;;;;;;12.70;7.45;;;14.80;64.90;;;;;;5071482;28;20024;-61
2023/10/04 01:53:24;;;;;;;11.85;7.85;;;14.80;64.80;;;;;;5071527;28;20044;-60
2023/10/04 01:55:50;;;;;;;11.88;7.57;;;14.80;64.80;;;;;;5071432;28;20029;-61
2023/10/04 01:58:21;;;;;;;13.02;7.75;;;14.80;64.80;;;;;;5071185;28;20024;-61
2023/10/04 02:00:47;;;;;;;15.02;8.52;;;14.70;64.70;;;;;;5071228;28;20020;-61
2023/10/04 02:03:14;;;;;;;17.42;8.95;;;14.70;64.60;;;;;;5071296;28;20023;-61
2023/10/04 02:05:41;;;;;;;12.95;8.15;;;14.70;64.70;;;;;;5071106;28;20387;-61
2023/10/04 02:08:09;;;;;;;14.45;7.95;;;14.70;64.70;;;;;;5071190;28;20028;-60
2023/10/04 02:10:36;;;;;;;13.73;7.82;;;14.70;64.70;;;;;;5071526;28;20456;-61
2023/10/04 02:13:06;;;;;;;16.90;8.00;;;14.70;64.70;;;;;;5070847;28;20048;-61
2023/10/04 02:15:37;;;;;;;14.70;8.57;;;14.70;64.60;;;;;;5069656;28;20423;-61
2023/10/04 02:18:04;;;;;;;13.13;8.15;;;14.70;64.60;;;;;;5071073;28;20024;-61
2023/10/04 02:20:33;;;;;;;12.38;8.35;;;14.70;64.60;;;;;;5071057;28;20063;-61
2023/10/04 02:22:58;;;;;;;12.85;7.78;;;14.70;64.50;;;;;;5070894;28;20357;-61
2023/10/04 02:25:25;;;;;;;16.17;7.95;;;14.60;64.40;;;;;;5070529;28;20075;-61
2023/10/04 02:27:52;;;;;;;15.52;8.30;;;14.70;64.50;;;;;;5069907;28;20028;-61
2023/10/04 02:30:26;;;;;;;12.68;8.07;;;14.60;64.50;;;;;;5070658;28;20514;-61
2023/10/04 02:32:53;;;;;;;11.85;8.05;;;14.70;64.60;;;;;;5071035;28;20039;-61
2023/10/04 02:35:34;;;;;;;13.40;7.78;;;14.60;64.50;;;;;;5068911;28;20028;-60
2023/10/04 02:38:00;;;;;;;13.00;8.13;;;14.60;64.50;;;;;;5071047;28;20031;-61
2023/10/04 02:40:32;;;;;;;13.13;8.48;;;14.60;64.50;;;;;;5070297;28;20020;-61
2023/10/04 02:42:58;;;;;;;15.50;8.05;;;14.60;64.40;;;;;;5068970;28;20016;-60
2023/10/04 02:45:24;;;;;;;14.65;8.02;;;14.70;64.40;;;;;;5068699;28;20075;-58
2023/10/04 02:47:52;;;;;;;12.80;8.43;;;14.60;64.30;;;;;;5068700;28;20115;-60
2023/10/04 02:50:20;;;;;;;13.43;8.65;;;14.60;64.20;;;;;;5068933;28;20020;-61
2023/10/04 02:52:46;;;;;;;12.07;8.20;;;14.60;64.10;;;;;;5068871;28;20025;-61
2023/10/04 02:55:16;;;;;;;13.00;8.55;;;14.60;64.10;;;;;;5068983;28;20479;-60
2023/10/04 02:57:45;;;;;;;14.45;8.68;;;14.60;64.10;;;;;;5070480;28;20012;-61
2023/10/04 03:00:15;;;;;;;13.20;8.60;;;14.60;64.00;;;;;;5070461;28;20024;-61
2023/10/04 03:02:42;;;;;;;18.77;8.43;;;14.60;64.00;;;;;;5070484;28;20104;-61
2023/10/04 03:05:09;;;;;;;18.58;8.65;;;14.60;63.90;;;;;;5070627;28;20032;-60
2023/10/04 03:07:34;;;;;;;14.13;8.02;;;14.60;63.90;;;;;;5070354;28;20044;-61
2023/10/04 03:10:00;;;;;;;13.60;8.98;;;14.60;63.90;;;;;;5070483;28;20071;-61
2023/10/04 03:12:26;;;;;;;14.18;8.13;;;14.60;64.00;;;;;;5070415;28;20392;-60
2023/10/04 03:14:52;;;;;;;16.88;9.00;;;14.60;64.00;;;;;;5070056;28;20037;-60
2023/10/04 03:17:19;;;;;;;14.70;7.88;;;14.60;63.90;;;;;;5070399;28;20043;-59
2023/10/04 03:19:47;;;;;;;14.90;8.07;;;14.60;64.10;;;;;;5070419;28;20095;-61
2023/10/04 03:22:18;;;;;;;13.50;8.05;;;14.50;64.00;;;;;;5070387;28;20480;-61
2023/10/04 03:24:46;;;;;;;17.60;8.95;;;14.60;64.10;;;;;;5070086;28;20403;-61
2023/10/04 03:27:12;;;;;;;18.45;8.60;;;14.60;64.10;;;;;;5070088;28;20598;-60
2023/10/04 03:29:39;;;;;;;14.80;8.27;;;14.60;64.70;;;;;;5070525;28;20361;-61
2023/10/04 03:32:05;;;;;;;17.73;9.15;;;14.50;64.00;;;;;;5070097;28;20021;-61
2023/10/04 03:34:31;;;;;;;13.02;8.35;;;14.60;64.00;;;;;;5070026;28;20424;-60
2023/10/04 03:37:08;;;;;;;14.82;8.98;;;14.50;63.90;;;;;;5070112;28;20040;-61
2023/10/04 03:39:35;;;;;;;12.88;8.25;;;14.50;63.90;;;;;;5069987;28;20472;-61
2023/10/04 03:42:01;;;;;;;13.60;8.15;;;14.50;64.00;;;;;;5070309;28;20032;-61
2023/10/04 03:44:27;;;;;;;18.63;8.98;;;14.40;64.20;;;;;;5069910;28;20407;-61
2023/10/04 03:46:56;;;;;;;15.60;9.35;;;14.40;64.20;;;;;;5071077;28;20470;-61
2023/10/04 03:49:23;;;;;;;15.93;8.98;;;14.40;64.30;;;;;;5073874;28;20507;-61
2023/10/04 03:51:53;;;;;;;14.32;8.32;;;14.30;64.40;;;;;;5073772;28;20480;-60
2023/10/04 03:54:19;;;;;;;16.80;8.90;;;14.30;64.40;;;;;;5072710;28;20360;-61
2023/10/04 03:56:45;;;;;;;14.35;9.32;;;14.30;64.30;;;;;;5073686;28;20514;-61
2023/10/04 03:59:11;;;;;;;14.88;8.55;;;14.30;64.50;;;;;;5073374;28;20033;-58
2023/10/04 04:01:37;;;;;;;16.23;8.13;;;14.20;64.60;;;;;;5073962;28;20021;-60
2023/10/04 04:04:04;;;;;;;15.57;9.07;;;14.20;64.50;;;;;;5073494;28;20439;-60
2023/10/04 04:06:30;;;;;;;14.40;8.65;;;14.20;64.50;;;;;;5073982;28;20526;-58
2023/10/04 04:08:58;;;;;;;15.27;9.20;;;14.20;64.60;;;;;;5073537;28;20035;-60
2023/10/04 04:11:24;;;;;;;14.82;9.18;;;14.20;64.60;;;;;;5073431;28;20503;-60
2023/10/04 04:13:49;;;;;;;16.90;9.30;;;14.20;64.80;;;;;;5073201;28;20044;-60
2023/10/04 04:16:17;;;;;;;12.93;8.15;;;14.20;64.70;;;;;;5073397;28;20368;-60
2023/10/04 04:18:44;;;;;;;14.73;9.05;;;14.30;64.80;;;;;;5073511;28;20456;-60
2023/10/04 04:21:10;;;;;;;15.73;8.43;;;14.30;64.80;;;;;;5073269;28;20419;-59
2023/10/04 04:23:36;;;;;;;18.92;8.65;;;14.30;64.70;;;;;;5073261;28;20404;-60
2023/10/04 04:26:05;;;;;;;17.00;9.00;;;14.30;64.60;;;;;;5073220;28;20028;-61
2023/10/04 04:28:35;;;;;;;15.88;8.18;;;14.40;64.70;;;;;;5073022;28;20480;-60
2023/10/04 04:31:01;;;;;;;18.00;8.65;;;14.40;64.80;;;;;;5073040;28;20020;-60
2023/10/04 04:33:29;;;;;;;15.02;9.35;;;14.40;64.80;;;;;;5073223;28;20388;-60
2023/10/04 04:36:01;;;;;;;17.83;9.25;;;14.40;64.70;;;;;;5072922;28;20052;-61
2023/10/04 04:38:28;;;;;;;20.35;9.05;;;14.40;64.60;;;;;;5073075;28;20100;-61
2023/10/04 04:40:58;;;;;;;14.45;8.40;;;14.40;64.60;;;;;;5073214;28;20032;-60
2023/10/04 04:43:37;;;;;;;18.13;9.05;;;14.50;64.60;;;;;;5073432;28;20463;-60
2023/10/04 04:46:13;;;;;;;16.00;9.05;;;14.50;64.50;;;;;;5072832;28;20078;-58
2023/10/04 04:48:39;;;;;;;14.50;8.68;;;14.50;64.50;;;;;;5072929;28;20017;-61
2023/10/04 04:51:14;;;;;;;18.13;9.00;;;14.50;64.60;;;;;;5072772;28;20046;-60
2023/10/04 04:53:43;;;;;;;18.65;9.00;;;14.50;64.60;;;;;;5071277;28;20024;-60
2023/10/04 04:56:18;;;;;;;17.38;9.25;;;14.50;64.60;;;;;;5070020;28;20025;-59
2023/10/04 04:58:48;;;;;;;15.88;9.35;;;14.60;64.70;;;;;;5070600;28;20023;-59
2023/10/04 05:01:15;;;;;;;19.45;9.52;;;14.50;64.70;;;;;;5069949;28;20349;-60
2023/10/04 05:03:42;;;;;;;17.08;9.88;;;14.60;64.80;;;;;;5069533;28;20043;-60
2023/10/04 05:06:13;;;;;;;15.75;9.77;;;14.60;64.80;;;;;;5070527;28;20082;-60
2023/10/04 05:08:40;;;;;;;17.45;9.77;;;14.60;64.80;;;;;;5069290;28;20047;-60
2023/10/04 05:11:06;;;;;;;16.70;9.15;;;14.70;64.90;;;;;;5070202;28;20029;-58
2023/10/04 05:13:32;;;;;;;18.42;9.57;;;14.80;64.80;;;;;;5070474;28;20041;-58
2023/10/04 05:15:59;;;;;;;16.30;9.20;;;14.80;64.70;;;;;;5070419;28;20025;-58
2023/10/04 05:18:26;;;;;;;19.50;9.57;;;14.90;64.70;;;;;;5071666;28;20013;-59
2023/10/04 05:20:54;;;;;;;13.90;9.20;;;14.90;64.70;;;;;;5070562;28;20036;-58
2023/10/04 05:23:22;;;;;;;18.83;9.45;;;15.00;64.70;;;;;;5070201;28;20044;-59
2023/10/04 05:25:49;;;;;;;17.70;8.35;;;15.00;64.60;;;;;;5071574;28;20024;-59
2023/10/04 05:28:15;;;;;;;14.32;8.68;;;15.10;64.50;;;;;;5071424;28;20016;-59
2023/10/04 05:30:43;;;;;;;15.65;9.05;;;15.10;64.70;;;;;;5071376;28;20024;-59
2023/10/04 05:33:10;;;;;;;16.00;9.00;;;15.20;64.50;;;;;;5071219;28;20024;-59
2023/10/04 05:35:36;;;;;;;13.88;9.40;;;15.20;64.30;;;;;;5071625;28;20029;-59
2023/10/04 05:38:06;;;;;;;16.25;8.95;;;15.30;64.40;;;;;;5070567;28;20016;-59
2023/10/04 05:40:34;;;;;;;20.67;10.05;;;15.30;64.40;;;;;;5070704;28;20017;-59
2023/10/04 05:43:00;;;;;;;16.67;10.00;;;15.40;64.50;;;;;;5070913;28;20023;-59
2023/10/04 05:45:26;;;;;;;16.50;9.40;;;15.40;64.50;;;;;;5070354;28;20020;-59
2023/10/04 05:47:52;;;;;;;15.90;9.13;;;15.50;64.50;;;;;;5070556;28;20028;-59
2023/10/04 05:50:21;;;;;;;15.02;9.07;;;15.60;64.40;;;;;;5070200;28;20070;-59
2023/10/04 05:52:48;;;;;;;23.17;10.35;;;15.60;64.50;;;;;;5071048;28;20393;-59
2023/10/04 05:55:14;;;;;;;18.88;10.00;;;15.70;64.50;;;;;;5071349;28;20472;-59
2023/10/04 05:57:39;;;;;;;18.23;10.10;;;15.80;64.40;;;;;;5069925;28;20074;-59
2023/10/04 06:00:23;;;;;;;18.92;10.15;;;15.80;64.30;;;;;;5071404;28;20030;-59
2023/10/04 06:03:06;;;;;;;20.13;10.43;;;15.90;64.20;;;;;;5071633;28;20098;-59
2023/10/04 06:05:35;;;;;;;18.88;10.15;;;16.00;64.10;;;;;;5071451;28;20043;-59
2023/10/04 06:08:06;;;;;;;19.92;10.07;;;16.10;64.00;;;;;;5071455;28;20028;-59
2023/10/04 06:10:32;;;;;;;19.47;9.37;;;16.20;63.90;;;;;;5070677;28;20024;-59
2023/10/04 06:12:59;;;;;;;19.33;9.73;;;16.30;63.90;;;;;;5071070;28;20277;-60
2023/10/04 06:15:25;;;;;;;16.50;9.20;;;16.30;63.90;;;;;;5070654;28;20028;-60
2023/10/04 06:17:54;;;;;;;17.02;9.05;;;16.40;63.70;;;;;;5069489;28;20021;-59
2023/10/04 06:22:52;;;;;;;16.95;9.73;;;16.70;63.20;;;;;;5068551;28;20040;-59
2023/10/04 06:25:19;;;;;;;15.32;10.02;;;16.80;63.00;;;;;;5068625;28;20032;-59
2023/10/04 06:27:45;;;;;;;17.20;10.00;;;16.80;62.90;;;;;;5068305;28;20025;-60
2023/10/04 06:30:17;;;;;;;18.98;10.13;;;16.90;62.80;;;;;;5069204;28;20024;-60
2023/10/04 06:32:43;;;;;;;17.50;10.15;;;17.00;62.70;;;;;;5069617;28;20431;-60
2023/10/04 06:35:09;;;;;;;13.95;9.05;;;17.10;62.60;;;;;;5070948;28;20107;-59
2023/10/04 06:37:36;;;;;;;16.60;9.00;;;17.10;62.40;;;;;;5069176;28;20100;-60
2023/10/04 06:40:04;;;;;;;18.70;8.98;;;17.10;62.30;;;;;;5068778;28;20099;-60
2023/10/04 06:42:30;;;;;;;19.80;9.52;;;17.20;62.30;;;;;;5068430;28;20020;-59
2023/10/04 06:44:56;;;;;;;21.52;8.98;;;17.30;62.20;;;;;;5067560;28;20476;-60
2023/10/04 06:47:23;;;;;;;20.98;9.15;;;17.30;62.20;;;;;;5067001;28;20078;-59
2023/10/04 06:49:48;;;;;;;17.63;9.57;;;17.30;61.90;;;;;;5067053;28;20339;-60
2023/10/04 06:52:15;;;;;;;16.20;8.77;;;17.40;61.90;;;;;;5067808;28;20071;-60
2023/10/04 06:54:41;;;;;;;16.08;8.73;;;17.40;61.80;;;;;;5068742;28;20027;-59
2023/10/04 06:57:06;;;;;;;21.40;8.85;;;17.50;62.00;;;;;;5069133;28;20024;-60
2023/10/04 06:59:32;;;;;;;23.00;9.32;;;17.50;61.90;;;;;;5070613;28;20391;-60
2023/10/04 07:01:57;;;;;;;20.70;9.85;;;17.60;62.00;;;;;;5070269;28;20040;-60
2023/10/04 07:04:23;;;;;;;19.73;9.27;;;17.60;62.00;;;;;;5070416;28;20032;-60
2023/10/04 07:06:49;;;;;;;17.77;9.18;;;17.70;62.00;;;;;;5070354;28;20028;-60
2023/10/04 07:09:14;;;;;;;16.52;9.07;;;17.70;62.00;;;;;;5070089;28;20064;-59
2023/10/04 07:11:40;;;;;;;17.27;8.38;;;17.80;62.10;;;;;;5069944;28;20099;-59
2023/10/04 07:14:05;;;;;;;20.70;8.98;;;17.90;61.90;;;;;;5069545;28;20135;-58
2023/10/04 07:16:31;;;;;;;15.50;8.60;;;18.00;61.70;;;;;;5070080;28;20116;-60
2023/10/04 07:18:59;;;;;;;15.80;8.70;;;18.10;61.70;;;;;;5069790;28;20025;-60
2023/10/04 07:21:24;;;;;;;20.05;9.38;;;18.10;61.80;;;;;;5070510;28;20430;-59
2023/10/04 07:23:50;;;;;;;17.38;8.77;;;18.20;61.70;;;;;;5074165;28;20032;-59
2023/10/04 07:26:15;;;;;;;17.10;8.82;;;18.30;61.50;;;;;;5073563;28;20028;-60
2023/10/04 07:28:41;;;;;;;19.13;8.32;;;18.30;61.40;;;;;;5073437;28;20111;-59
2023/10/04 07:31:08;;;;;;;24.75;8.93;;;18.40;61.30;;;;;;5074020;28;20487;-59
2023/10/04 07:33:33;;;;;;;22.42;8.50;;;18.50;61.00;;;;;;5074252;28;20032;-60
2023/10/04 07:35:59;;;;;;;22.05;8.88;;;18.60;60.80;;;;;;5073997;28;20476;-59
2023/10/04 07:38:25;;;;;;;18.08;8.43;;;18.60;60.80;;;;;;5074124;28;20028;-59
2023/10/04 07:40:51;;;;;;;21.60;8.82;;;18.70;60.60;;;;;;5072866;28;20029;-59
2023/10/04 07:43:16;;;;;;;22.27;9.10;;;18.70;60.50;;;;;;5074354;28;20021;-59
2023/10/04 07:45:42;;;;;;;22.08;8.40;;;18.80;60.40;;;;;;5074080;28;20021;-60
2023/10/04 07:48:10;;;;;;;20.30;8.38;;;18.90;60.40;;;;;;5073173;28;20040;-59
2023/10/04 07:50:37;;;;;;;21.30;8.05;;;19.00;60.70;;;;;;5073928;28;20112;-58
2023/10/04 07:53:04;;;;;;;18.00;8.55;;;19.00;59.80;;;;;;5074039;28;20486;-59
2023/10/04 07:55:33;;;;;;;24.27;8.35;;;19.10;59.80;;;;;;5073179;28;20475;-59
2023/10/04 07:58:06;;;;;;;55.00;11.90;;;19.20;59.80;;;;;;5073365;28;20179;-59
2023/10/04 08:00:34;;;;;;;16.00;7.05;;;19.20;59.60;;;;;;5073932;28;20047;-59
2023/10/04 08:03:00;;;;;;;20.25;8.07;;;19.30;59.60;;;;;;5073766;28;20025;-59
2023/10/04 08:05:31;;;;;;;15.43;7.78;;;19.40;59.50;;;;;;5073600;28;20484;-59
2023/10/04 08:08:02;;;;;;;65.80;11.70;;;19.40;59.30;;;;;;5073453;28;20032;-59
2023/10/04 08:10:33;;;;;;;18.35;8.20;;;19.50;59.20;;;;;;5073789;28;20044;-59
2023/10/04 08:13:01;;;;;;;15.13;6.72;;;19.50;59.10;;;;;;5073166;28;20083;-59
2023/10/04 08:15:29;;;;;;;17.65;7.55;;;19.60;59.10;;;;;;5073640;28;20024;-59
2023/10/04 08:17:56;;;;;;;14.80;6.90;;;19.60;58.90;;;;;;5073858;28;20111;-59
2023/10/04 08:20:24;;;;;;;18.30;7.38;;;19.70;58.70;;;;;;5073219;28;20032;-59
2023/10/04 08:22:50;;;;;;;13.52;7.03;;;19.80;58.60;;;;;;5073226;28;20391;-59
2023/10/04 08:25:17;;;;;;;13.43;7.13;;;19.80;58.60;;;;;;5073182;28;20035;-59
2023/10/04 08:27:44;;;;;;;18.33;7.40;;;19.90;58.50;;;;;;5072275;28;20062;-59
2023/10/04 08:30:12;;;;;;;19.17;7.85;;;20.00;58.40;;;;;;5072905;28;20037;-59
2023/10/04 08:32:41;;;;;;;44.35;8.68;;;20.00;58.40;;;;;;5060329;28;20028;-59
2023/10/04 08:35:28;;;;;;;20.30;7.80;;;20.10;58.30;;;;;;5068083;28;20017;-58
2023/10/04 08:38:00;;;;;;;16.80;8.27;;;20.10;58.20;;;;;;5067872;28;20025;-60
2023/10/04 08:40:27;;;;;;;15.40;7.38;;;20.20;58.10;;;;;;5066227;28;20029;-59
2023/10/04 08:42:55;;;;;;;15.55;7.15;;;20.20;58.10;;;;;;5068797;28;20006;-60
2023/10/04 08:45:22;;;;;;;20.45;7.55;;;20.30;57.90;;;;;;5074248;28;20040;-61
2023/10/04 08:47:52;;;;;;;15.25;6.85;;;20.30;57.80;;;;;;5075616;28;20018;-61
2023/10/04 08:50:41;;;;;;;23.90;7.83;;;20.30;57.70;;;;;;5048025;22;20517;-87
2023/10/04 08:53:58;;;;;;;19.20;7.45;;;20.40;57.80;;;;;;5032731;28;20283;-89
2023/10/04 08:59:55;;;;;;;24.40;7.53;;;20.40;57.60;;;;;;4997376;28;20100;-88
2023/10/04 09:02:31;;;;;;;14.82;6.80;;;20.40;57.50;;;;;;5041222;28;20029;-88
2023/10/04 09:04:58;;;;;;;18.45;6.97;;;20.50;57.40;;;;;;5037535;28;20097;-88
2023/10/04 09:07:25;;;;;;;13.93;6.88;;;20.50;57.30;;;;;;5041792;28;20420;-86
2023/10/04 09:19:34;;;;;;;;;;;20.60;57.60;;;;;;5097861;23;20387;-58
2023/10/04 09:22:07;;;;;;;19.02;7.30;;;20.60;57.90;;;;;;5060240;28;19928;-59
2023/10/04 09:24:55;;;;;;;18.58;7.10;;;20.60;57.60;;;;;;5060713;28;20020;-59
2023/10/04 09:27:21;;;;;;;17.00;7.78;;;20.70;57.40;;;;;;5060913;28;20029;-61
2023/10/04 09:29:48;;;;;;;16.48;6.85;;;20.80;57.30;;;;;;5066720;28;20098;-60
2023/10/04 09:32:14;;;;;;;17.77;7.40;;;20.80;57.70;;;;;;5058488;28;20021;-61
2023/10/04 09:34:54;;;;;;;14.88;7.22;;;20.90;57.00;;;;;;5061543;28;20081;-61
2023/10/04 09:37:21;;;;;;;18.17;6.97;;;20.90;56.90;;;;;;5069571;28;20025;-60
2023/10/04 09:39:46;;;;;;;13.02;6.43;;;21.00;56.70;;;;;;5049575;28;20032;-60
2023/10/04 09:42:14;;;;;;;13.98;6.95;;;21.00;56.60;;;;;;5050471;28;20037;-59
2023/10/04 09:44:40;;;;;;;13.18;6.32;;;21.10;56.50;;;;;;5063299;28;20032;-60
2023/10/04 09:47:07;;;;;;;18.85;6.53;;;21.20;56.50;;;;;;5075349;28;20029;-60
2023/10/04 09:49:36;;;;;;;15.85;7.50;;;21.20;56.40;;;;;;5061995;28;20354;-61
2023/10/04 09:52:16;;;;;;;13.95;6.80;;;21.20;56.30;;;;;;5058762;28;20049;-61
2023/10/04 09:54:42;;;;;;;15.68;6.60;;;21.30;56.20;;;;;;5064088;28;20048;-60
2023/10/04 09:57:10;;;;;;;13.40;6.78;;;21.30;56.20;;;;;;5065510;28;20017;-61
2023/10/04 09:59:38;;;;;;;20.30;7.15;;;21.40;56.00;;;;;;5082954;22;20072;-83
2023/10/04 10:02:07;;;;;;;14.65;7.32;;;21.40;55.80;;;;;;5094627;28;20024;-83
2023/10/04 10:04:41;;;;;;;12.43;6.28;;;21.50;55.80;;;;;;5109424;28;20079;-83
2023/10/04 10:07:10;;;;;;;13.93;6.40;;;21.50;55.80;;;;;;5107082;28;20034;-83
2023/10/04 10:10:01;;;;;;;12.43;6.35;;;21.50;55.80;;;;;;5094014;28;20391;-83
2023/10/04 10:12:31;;;;;;;;;;;21.60;55.80;;;;;;5083383;28;20426;-83
2023/10/04 10:15:01;;;;;;;13.20;6.50;;;21.60;56.20;;;;;;5090703;28;20227;-82
2023/10/04 10:17:27;;;;;;;12.13;6.00;;;21.60;56.00;;;;;;5083958;28;20501;-82
2023/10/04 10:19:55;;;;;;;15.10;6.32;;;21.70;55.70;;;;;;5102083;28;20709;-84
2023/10/04 10:22:21;;;;;;;11.52;6.20;;;21.70;55.80;;;;;;5091451;28;20024;-84
2023/10/04 10:24:55;;;;;;;10.50;6.55;;;21.80;55.60;;;;;;5089864;28;20028;-83
2023/10/04 10:27:27;;;;;;;9.15;5.65;;;21.90;55.60;;;;;;5108567;28;20035;-83
2023/10/04 10:30:01;;;;;;;13.77;6.97;;;21.90;55.70;;;;;;5100222;28;20024;-87
2023/10/04 10:32:27;;;;;;;11.65;6.35;;;22.00;55.60;;;;;;5103782;28;20031;-84
2023/10/04 10:35:06;;;;;;;9.35;5.65;;;22.00;55.70;;;;;;5094842;28;20335;-84
2023/10/04 10:37:38;;;;;;;10.27;5.93;;;22.10;55.70;;;;;;5094570;28;20038;-84
2023/10/04 10:40:13;;;;;;;9.73;5.68;;;22.10;55.70;;;;;;5102984;28;20023;-84
2023/10/04 10:43:08;;;;;;;10.55;6.15;;;22.20;55.70;;;;;;5083113;28;20049;-84
2023/10/04 10:45:34;;;;;;;16.15;6.97;;;22.20;55.60;;;;;;5092511;28;20076;-83
2023/10/04 10:48:02;;;;;;;11.60;6.10;;;22.20;55.60;;;;;;5091741;28;20386;-84
2023/10/04 10:50:37;;;;;;;12.40;5.80;;;22.30;55.40;;;;;;5091805;28;20023;-85
2023/10/04 10:53:09;;;;;;;12.20;7.05;;;22.30;55.40;;;;;;5129165;27;20080;-87
2023/10/04 10:55:35;;;;;;;17.55;7.90;;;22.40;55.50;;;;;;5101871;28;20039;-87
2023/10/04 10:58:01;;;;;;;11.35;6.40;;;22.40;55.40;;;;;;5095425;28;20495;-85
2023/10/04 11:00:53;;;;;;;12.20;6.65;;;22.40;55.30;;;;;;5094227;28;20048;-90
2023/10/04 11:03:19;;;;;;;11.38;6.40;;;22.50;55.20;;;;;;5080468;28;20026;-85
2023/10/04 11:05:45;;;;;;;13.73;6.43;;;22.50;55.30;;;;;;5089694;28;20035;-84
2023/10/04 11:08:12;;;;;;;15.10;7.25;;;22.50;55.30;;;;;;5101524;27;20028;-85
2023/10/04 11:10:39;;;;;;;11.40;6.43;;;22.50;55.30;;;;;;5084333;28;20036;-84
2023/10/04 11:13:08;;;;;;;11.63;6.97;;;22.60;55.20;;;;;;5094064;28;20062;-85
2023/10/04 11:15:36;;;;;;;12.75;6.60;;;22.60;55.20;;;;;;5105747;28;20114;-85
2023/10/04 11:18:02;;;;;;;11.05;6.53;;;22.60;55.10;;;;;;5082960;28;20078;-85
2023/10/04 11:20:31;;;;;;;9.40;5.88;;;22.60;54.90;;;;;;5087755;28;20023;-86
2023/10/04 11:22:57;;;;;;;10.90;6.43;;;22.60;54.90;;;;;;5070762;28;20499;-85
2023/10/04 11:25:23;;;;;;;10.05;6.32;;;22.60;54.90;;;;;;5091630;28;20072;-85
2023/10/04 11:27:51;;;;;;;10.18;6.97;;;22.60;55.00;;;;;;5088962;28;20044;-85
2023/10/04 11:30:18;;;;;;;12.82;7.20;;;22.60;54.80;;;;;;5091112;28;20410;-85
2023/10/04 11:32:46;;;;;;;10.60;6.78;;;22.70;55.00;;;;;;5098985;28;20076;-88
2023/10/04 11:35:15;;;;;;;14.88;6.80;;;22.60;55.00;;;;;;5108610;28;20035;-87
2023/10/04 11:37:45;;;;;;;12.02;6.40;;;22.70;55.10;;;;;;5097365;28;20035;-86
2023/10/04 11:40:13;;;;;;;13.75;6.65;;;22.70;55.20;;;;;;5096916;28;20518;-87
2023/10/04 11:42:45;;;;;;;11.38;6.53;;;22.70;55.30;;;;;;5087965;28;20484;-85
2023/10/04 11:45:23;;;;;;;13.40;6.45;;;22.70;55.30;;;;;;5089122;28;20024;-85
2023/10/04 11:49:59;;;;;;;11.52;6.25;;;22.70;54.80;;;;;;5078076;27;20570;-58
2023/10/04 11:52:29;;;;;;;11.35;6.78;;;22.70;55.10;;;;;;5047179;28;20554;-57
2023/10/04 11:54:55;;;;;;;12.88;7.43;;;22.70;55.10;;;;;;5070764;28;20016;-54
2023/10/04 11:57:31;;;;;;;11.00;6.85;;;22.70;55.20;;;;;;5074220;28;20041;-55
2023/10/04 11:59:57;;;;;;;9.82;6.50;;;22.70;55.10;;;;;;5078293;28;20025;-57
2023/10/04 12:02:25;;;;;;;12.63;7.28;;;22.70;55.10;;;;;;5072539;28;20031;-58
2023/10/04 12:04:51;;;;;;;11.50;6.82;;;22.70;55.20;;;;;;5053516;28;20364;-57
2023/10/04 12:07:17;;;;;;;9.60;6.88;;;22.70;55.30;;;;;;5062981;28;20025;-57
2023/10/04 12:09:43;;;;;;;12.60;6.82;;;22.60;55.40;;;;;;5060380;28;20029;-54
2023/10/04 12:12:09;;;;;;;14.52;7.82;;;22.60;55.50;;;;;;5066658;28;20036;-57
2023/10/04 12:14:35;;;;;;;12.25;6.70;;;22.60;55.60;;;;;;5055293;28;20488;-58
2023/10/04 12:17:04;;;;;;;13.77;6.18;;;22.50;55.80;;;;;;5059156;28;20027;-58
2023/10/04 12:19:30;;;;;;;11.45;7.10;;;22.50;55.80;;;;;;5058928;28;20029;-58
2023/10/04 12:22:02;;;;;;;14.13;6.47;;;22.50;55.90;;;;;;5066600;28;20028;-57
2023/10/04 12:24:30;;;;;;;11.30;7.72;;;22.40;55.90;;;;;;5066955;28;20326;-58
2023/10/04 12:26:58;;;;;;;10.70;7.25;;;22.40;55.90;;;;;;5066126;28;20456;-57
2023/10/04 12:29:30;;;;;;;17.95;7.63;;;22.40;56.30;;;;;;5074585;28;20028;-57
2023/10/04 12:31:56;;;;;;;14.60;7.60;;;22.40;56.50;;;;;;5073879;28;20092;-58
2023/10/04 12:34:24;;;;;;;11.90;7.15;;;22.30;56.90;;;;;;5080245;28;20432;-59
2023/10/04 12:36:53;;;;;;;13.45;7.55;;;22.40;57.50;;;;;;5061664;28;20034;-58
2023/10/04 12:39:21;;;;;;;14.38;6.75;;;22.40;57.90;;;;;;5064233;28;20037;-57
2023/10/04 12:41:47;;;;;;;10.60;6.55;;;22.40;58.00;;;;;;5064727;28;20059;-57
2023/10/04 12:44:13;;;;;;;12.77;6.65;;;22.40;57.80;;;;;;5063288;28;20044;-56
2023/10/04 12:46:39;;;;;;;10.32;6.18;;;22.30;57.60;;;;;;5059197;28;20479;-58
2023/10/04 12:49:07;;;;;;;12.02;6.55;;;22.30;57.70;;;;;;5068363;28;20052;-58
2023/10/04 12:51:33;;;;;;;12.68;6.30;;;22.30;57.80;;;;;;5064275;28;20525;-58
2023/10/04 12:53:59;;;;;;;13.35;7.47;;;22.20;57.80;;;;;;5061872;28;20063;-58
2023/10/04 12:56:26;;;;;;;10.00;6.90;;;22.20;57.80;;;;;;5061329;28;20040;-56
2023/10/04 12:58:52;;;;;;;10.75;6.65;;;22.10;57.90;;;;;;5071637;28;20034;-59
2023/10/04 13:01:21;;;;;;;15.90;7.28;;;22.10;57.90;;;;;;5051187;28;20550;-56
2023/10/04 13:03:47;;;;;;;13.35;7.15;;;22.00;57.80;;;;;;5056088;28;20021;-57